Time;durP1;ratioP1;P1;durP2;ratioP2;P2;SDS_P1;SDS_P2;PMS_P1;PMS_P2;Temp;Humidity;BMP_temperature;BMP_pressure;BME280_temperature;BME280_humidity;BME280_pressure;Samples;Min_cycle;Max_cycle;Signal;HPM_P1;HPM_P2
2022/09/10 00:00:59;;;;;;;4.27;2.60;;;15.80;99.90;;;;;;5017800;28;20203;-63
2022/09/10 00:03:26;;;;;;;7.40;3.60;;;15.80;99.90;;;;;;5038605;28;20227;-63
2022/09/10 00:05:53;;;;;;;6.13;2.87;;;15.70;99.90;;;;;;5042121;28;20215;-63
2022/09/10 00:08:20;;;;;;;5.67;3.20;;;15.70;99.90;;;;;;5045257;28;20286;-63
2022/09/10 00:10:50;;;;;;;7.33;3.00;;;15.60;99.90;;;;;;5024571;28;20205;-64
2022/09/10 00:13:20;;;;;;;4.43;3.00;;;15.60;99.90;;;;;;5045511;28;20748;-64
2022/09/10 00:15:51;;;;;;;9.43;3.53;;;15.60;1.00;;;;;;5045520;28;20360;-63
2022/09/10 00:18:21;;;;;;;5.93;3.53;;;15.50;1.00;;;;;;5043481;28;20188;-63
2022/09/10 00:20:54;;;;;;;8.53;3.63;;;15.50;1.00;;;;;;5022510;28;20720;-64
2022/09/10 00:23:25;;;;;;;7.23;3.43;;;15.50;1.00;;;;;;5043513;28;20214;-64
2022/09/10 00:25:53;;;;;;;6.10;3.50;;;15.50;1.00;;;;;;5046698;28;20212;-63
2022/09/10 00:28:22;;;;;;;8.37;3.40;;;15.40;1.00;;;;;;5043564;28;20190;-64
2022/09/10 00:30:50;;;;;;;5.30;3.20;;;15.40;1.00;;;;;;5025401;28;20192;-63
2022/09/10 00:33:18;;;;;;;4.23;3.50;;;15.40;1.00;;;;;;5032759;28;20196;-65
2022/09/10 00:35:45;;;;;;;6.77;3.40;;;15.40;1.00;;;;;;5040226;28;20279;-66
2022/09/10 00:38:14;;;;;;;7.53;4.47;;;15.40;1.00;;;;;;5041025;28;20192;-62
2022/09/10 00:40:41;;;;;;;5.17;3.73;;;15.40;1.00;;;;;;5034932;28;20667;-65
2022/09/10 00:43:14;;;;;;;8.03;3.57;;;15.50;1.00;;;;;;5040778;28;20630;-65
2022/09/10 00:45:44;;;;;;;9.57;3.45;;;15.50;99.90;;;;;;5035701;28;20226;-62
2022/09/10 00:48:27;;;;;;;6.60;3.30;;;15.60;99.90;;;;;;5022450;28;20199;-64
2022/09/10 00:50:56;;;;;;;5.97;3.70;;;15.60;99.90;;;;;;5045116;28;20241;-65
2022/09/10 00:53:26;;;;;;;5.17;3.23;;;15.60;99.90;;;;;;5026312;28;20214;-65
2022/09/10 00:55:58;;;;;;;11.03;6.33;;;15.60;99.90;;;;;;5044045;28;20209;-64
2022/09/10 00:58:27;;;;;;;6.73;3.40;;;15.60;99.90;;;;;;5039552;28;20199;-63
2022/09/10 01:01:00;;;;;;;7.97;5.10;;;15.60;99.90;;;;;;5041364;28;20203;-65
2022/09/10 01:03:30;;;;;;;4.50;3.40;;;15.60;99.90;;;;;;5041323;28;20322;-64
2022/09/10 01:05:57;;;;;;;10.70;5.60;;;15.50;99.90;;;;;;5041523;28;20231;-64
2022/09/10 01:08:26;;;;;;;8.63;5.17;;;15.50;99.90;;;;;;5040208;28;20187;-62
2022/09/10 01:11:10;;;;;;;6.97;3.57;;;15.50;99.90;;;;;;5021030;28;20315;-63
2022/09/10 01:13:56;;;;;;;6.53;3.27;;;15.60;99.90;;;;;;5045377;28;20317;-64
2022/09/10 01:16:55;;;;;;;7.67;3.23;;;15.50;99.90;;;;;;5027270;28;20219;-64
2022/09/10 01:19:41;;;;;;;8.30;4.07;;;15.50;99.90;;;;;;5042403;28;20284;-64
2022/09/10 01:22:33;;;;;;;5.03;2.80;;;15.50;99.90;;;;;;5040556;28;20490;-64
2022/09/10 01:25:24;;;;;;;8.10;3.30;;;15.40;99.90;;;;;;5043137;28;20192;-64
2022/09/10 01:27:55;;;;;;;5.90;3.20;;;15.30;99.90;;;;;;5045206;28;20774;-65
2022/09/10 01:30:33;;;;;;;5.90;3.23;;;15.40;99.90;;;;;;5043999;28;20202;-64
2022/09/10 01:33:11;;;;;;;10.27;3.10;;;15.50;99.90;;;;;;5024409;28;20222;-63
2022/09/10 01:35:51;;;;;;;8.25;2.67;;;15.60;99.90;;;;;;5052013;28;20196;-64
2022/09/10 01:38:31;;;;;;;4.78;2.55;;;15.60;99.90;;;;;;5045465;28;20290;-62
2022/09/10 01:40:59;;;;;;;4.00;2.60;;;15.70;99.90;;;;;;5031267;28;20286;-63
2022/09/10 01:43:32;;;;;;;6.60;2.60;;;15.70;99.90;;;;;;5048263;28;20206;-63
2022/09/10 01:46:14;;;;;;;5.07;2.47;;;15.70;99.90;;;;;;5029319;28;20223;-63
2022/09/10 01:49:05;;;;;;;6.43;2.60;;;15.60;99.90;;;;;;5047232;28;20283;-64
2022/09/10 01:51:51;;;;;;;6.93;2.47;;;15.70;99.90;;;;;;5047573;28;20196;-63
2022/09/10 01:55:02;;;;;;;5.82;2.53;;;15.60;99.90;;;;;;5046364;28;20202;-63
2022/09/10 01:57:57;;;;;;;6.87;3.00;;;15.60;99.90;;;;;;5044055;28;20623;-63
2022/09/10 02:00:34;;;;;;;7.50;3.00;;;15.60;99.90;;;;;;5036693;28;20746;-64
2022/09/10 02:03:10;;;;;;;5.83;3.03;;;15.50;99.90;;;;;;5025857;28;20674;-63
2022/09/10 02:05:40;;;;;;;11.97;3.17;;;15.50;99.90;;;;;;5039492;28;20387;-64
2022/09/10 02:08:17;;;;;;;6.77;3.27;;;15.40;99.90;;;;;;5041339;28;20183;-64
2022/09/10 02:10:59;;;;;;;5.40;2.80;;;15.40;99.90;;;;;;5045048;28;20203;-64
2022/09/10 02:13:30;;;;;;;6.37;2.40;;;15.30;1.00;;;;;;5046435;28;20614;-64
2022/09/10 02:16:33;;;;;;;4.77;2.30;;;15.30;99.90;;;;;;5030442;28;20226;-62
2022/09/10 02:19:02;;;;;;;10.43;2.90;;;15.20;1.00;;;;;;5044248;28;20199;-62
2022/09/10 02:21:31;;;;;;;5.37;2.80;;;15.20;1.00;;;;;;5027037;28;20705;-62
2022/09/10 02:24:04;;;;;;;7.00;2.90;;;15.10;1.00;;;;;;5043950;28;20686;-62
2022/09/10 02:26:32;;;;;;;5.93;2.97;;;15.10;1.00;;;;;;5046130;28;20215;-61
2022/09/10 02:29:00;;;;;;;6.07;2.70;;;15.10;1.00;;;;;;5045904;28;20202;-62
2022/09/10 02:31:28;;;;;;;3.60;2.40;;;15.00;1.00;;;;;;5029325;28;20568;-62
2022/09/10 02:33:55;;;;;;;4.13;2.77;;;14.90;1.00;;;;;;5044515;28;20203;-62
2022/09/10 02:36:25;;;;;;;4.73;2.93;;;14.90;1.00;;;;;;5043423;28;20250;-62
2022/09/10 02:38:55;;;;;;;8.47;2.87;;;14.80;1.00;;;;;;5045409;28;20204;-62
2022/09/10 02:41:25;;;;;;;7.57;2.97;;;14.80;1.00;;;;;;5044875;28;20907;-62
2022/09/10 02:43:53;;;;;;;9.73;3.00;;;14.80;1.00;;;;;;5044935;28;20207;-62
2022/09/10 02:46:21;;;;;;;8.57;2.67;;;14.60;1.00;;;;;;5044454;28;20223;-62
2022/09/10 02:48:49;;;;;;;5.30;3.00;;;14.60;10.80;;;;;;5030859;28;22157;-64
2022/09/10 02:51:16;;;;;;;7.63;2.70;;;14.60;46.00;;;;;;5047246;28;20374;-64
2022/09/10 02:53:44;;;;;;;5.17;2.97;;;14.60;1.00;;;;;;5046592;28;20221;-64
2022/09/10 02:56:12;;;;;;;5.63;2.63;;;14.70;1.00;;;;;;5043895;28;20204;-64
2022/09/10 02:58:41;;;;;;;3.83;2.70;;;14.70;1.00;;;;;;5025714;28;20338;-64
2022/09/10 03:01:13;;;;;;;5.73;2.70;;;14.70;1.00;;;;;;5043251;28;20275;-62
2022/09/10 03:03:41;;;;;;;5.00;2.67;;;14.80;1.00;;;;;;5027644;28;20204;-61
2022/09/10 03:06:09;;;;;;;6.50;2.57;;;15.00;99.90;;;;;;5022748;28;20246;-62
2022/09/10 03:08:36;;;;;;;3.77;2.60;;;15.10;99.90;;;;;;5026708;28;20222;-62
2022/09/10 03:11:04;;;;;;;5.70;2.73;;;15.20;99.90;;;;;;5044261;28;20269;-63
2022/09/10 03:13:32;;;;;;;4.63;2.50;;;15.30;99.90;;;;;;5023382;28;20246;-63
2022/09/10 03:16:03;;;;;;;6.57;2.70;;;15.40;99.90;;;;;;5041572;28;20219;-62
2022/09/10 03:18:32;;;;;;;5.33;2.87;;;15.50;1.00;;;;;;5045311;28;20187;-62
2022/09/10 03:21:08;;;;;;;2.83;1.70;;;15.60;1.00;;;;;;5026069;28;20289;-62
2022/09/10 03:23:36;;;;;;;2.33;2.13;;;15.60;1.00;;;;;;5044179;28;20931;-62
2022/09/10 03:26:05;;;;;;;4.27;2.10;;;15.60;1.00;;;;;;5026235;28;20195;-63
2022/09/10 03:28:32;;;;;;;4.57;2.20;;;15.70;1.00;;;;;;5048219;28;20812;-63
2022/09/10 03:31:03;;;;;;;5.53;2.30;;;15.70;1.00;;;;;;5039595;28;20237;-63
2022/09/10 03:33:36;;;;;;;6.82;2.03;;;15.70;1.00;;;;;;5026596;28;20188;-62
2022/09/10 03:36:04;;;;;;;4.15;2.10;;;15.70;1.00;;;;;;5046359;28;20195;-63
2022/09/10 03:38:32;;;;;;;3.42;1.98;;;15.80;1.00;;;;;;5031308;28;20200;-62
2022/09/10 03:41:01;;;;;;;5.40;2.07;;;15.70;1.00;;;;;;5029470;28;20196;-63
2022/09/10 03:43:29;;;;;;;4.13;1.90;;;15.70;1.00;;;;;;5026690;28;20203;-62
2022/09/10 03:45:57;;;;;;;4.78;2.35;;;15.60;1.00;;;;;;5044027;28;20192;-63
2022/09/10 03:48:24;;;;;;;6.75;2.30;;;15.50;1.00;;;;;;5045776;28;20641;-62
2022/09/10 03:50:51;;;;;;;8.00;2.40;;;15.40;1.00;;;;;;5041995;28;20220;-62
2022/09/10 03:53:18;;;;;;;9.17;2.57;;;15.40;37.00;;;;;;5047876;28;20191;-63
2022/09/10 03:55:47;;;;;;;5.23;2.60;;;15.20;99.90;;;;;;5043366;28;20223;-63
2022/09/10 03:58:17;;;;;;;7.33;2.50;;;15.20;99.90;;;;;;5043985;28;20211;-63
2022/09/10 04:00:45;;;;;;;5.13;2.50;;;15.20;99.90;;;;;;5042671;28;20615;-62
2022/09/10 04:03:13;;;;;;;2.93;1.90;;;15.20;99.90;;;;;;5045178;28;20195;-63
2022/09/10 04:05:44;;;;;;;5.50;2.63;;;15.20;99.90;;;;;;5028943;28;20280;-62
2022/09/10 04:08:13;;;;;;;4.90;2.23;;;15.10;99.90;;;;;;5027857;28;20212;-63
2022/09/10 04:10:42;;;;;;;7.33;2.70;;;15.00;99.90;;;;;;5044537;28;20247;-63
2022/09/10 04:13:10;;;;;;;2.97;1.83;;;15.00;1.00;;;;;;5044356;28;20220;-63
2022/09/10 04:15:38;;;;;;;5.23;2.23;;;15.10;1.00;;;;;;5039318;28;20226;-63
2022/09/10 04:18:07;;;;;;;3.67;2.03;;;15.10;99.90;;;;;;5043548;28;20914;-63
2022/09/10 04:20:35;;;;;;;4.57;1.90;;;15.10;99.90;;;;;;5010641;28;20202;-63
2022/09/10 04:23:06;;;;;;;4.27;2.00;;;15.10;99.90;;;;;;5026456;28;20204;-63
2022/09/10 04:25:35;;;;;;;5.30;2.03;;;15.10;99.90;;;;;;5004993;28;20682;-62
2022/09/10 04:28:03;;;;;;;5.00;2.00;;;15.10;99.90;;;;;;5025844;28;20203;-63
2022/09/10 04:30:31;;;;;;;4.03;2.10;;;15.10;99.90;;;;;;5043329;28;20195;-62
2022/09/10 04:32:59;;;;;;;6.97;2.00;;;15.00;1.00;;;;;;5044711;28;20699;-62
2022/09/10 04:35:29;;;;;;;4.50;2.47;;;15.00;1.00;;;;;;5045620;28;20682;-63
2022/09/10 04:37:57;;;;;;;5.70;2.53;;;15.10;1.00;;;;;;5028948;28;20294;-62
2022/09/10 04:40:26;;;;;;;5.17;2.63;;;15.10;1.00;;;;;;5028064;28;20666;-63
2022/09/10 04:42:53;;;;;;;4.20;2.13;;;15.10;1.00;;;;;;5025574;28;20191;-62
2022/09/10 04:45:20;;;;;;;5.87;2.53;;;15.10;1.00;;;;;;5043292;28;20203;-61
2022/09/10 04:47:48;;;;;;;3.40;2.10;;;15.10;1.00;;;;;;5043874;28;20214;-62
2022/09/10 04:50:15;;;;;;;3.17;1.87;;;15.20;1.00;;;;;;5027147;28;20688;-62
2022/09/10 04:53:02;;;;;;;4.63;2.20;;;15.20;1.00;;;;;;5044671;28;20199;-62
2022/09/10 04:55:30;;;;;;;3.87;2.03;;;15.20;1.00;;;;;;5044373;28;20800;-62
2022/09/10 04:57:58;;;;;;;4.47;2.30;;;15.20;1.00;;;;;;5040577;28;20195;-62
2022/09/10 05:00:25;;;;;;;5.53;2.63;;;15.20;1.00;;;;;;5024984;28;20199;-62
2022/09/10 05:02:53;;;;;;;4.10;2.67;;;15.10;1.00;;;;;;5046125;28;20196;-62
2022/09/10 05:05:20;;;;;;;6.07;2.70;;;15.20;1.00;;;;;;5042021;28;20223;-61
2022/09/10 05:07:47;;;;;;;6.30;2.80;;;15.20;1.00;;;;;;5045766;28;20211;-62
2022/09/10 05:10:15;;;;;;;3.47;2.60;;;15.20;1.00;;;;;;5023835;28;20222;-62
2022/09/10 05:12:42;;;;;;;4.43;2.67;;;15.30;1.00;;;;;;5042043;28;20291;-62
2022/09/10 05:15:11;;;;;;;5.50;3.10;;;15.30;99.90;;;;;;5026750;28;20232;-62
2022/09/10 05:17:38;;;;;;;5.80;2.60;;;15.40;99.90;;;;;;5043919;28;20620;-62
2022/09/10 05:20:07;;;;;;;5.63;2.90;;;15.40;99.90;;;;;;5025708;28;20196;-62
2022/09/10 05:22:41;;;;;;;3.20;2.70;;;15.30;99.90;;;;;;5024977;28;20223;-62
2022/09/10 05:25:09;;;;;;;3.57;2.50;;;15.40;99.90;;;;;;5043428;28;20265;-62
2022/09/10 05:27:37;;;;;;;4.90;3.10;;;15.40;99.90;;;;;;5044609;28;20268;-63
2022/09/10 05:30:07;;;;;;;3.57;2.77;;;15.40;99.90;;;;;;5025033;28;20257;-62
2022/09/10 05:32:34;;;;;;;3.33;2.90;;;15.50;99.90;;;;;;5026936;28;20568;-62
2022/09/10 05:35:04;;;;;;;5.40;3.00;;;15.50;99.90;;;;;;5042123;28;20266;-62
2022/09/10 05:37:35;;;;;;;3.43;2.60;;;15.50;99.90;;;;;;5028876;28;20200;-63
2022/09/10 05:40:05;;;;;;;3.20;2.87;;;15.50;99.90;;;;;;5043540;28;20195;-63
2022/09/10 05:42:32;;;;;;;4.40;3.57;;;15.50;99.90;;;;;;5041011;28;20208;-62
2022/09/10 05:44:59;;;;;;;5.57;3.50;;;15.50;99.90;;;;;;5041680;28;20278;-62
2022/09/10 05:47:27;;;;;;;3.87;3.03;;;15.60;99.90;;;;;;5047087;28;20269;-62
2022/09/10 05:49:55;;;;;;;3.13;2.80;;;15.60;99.90;;;;;;5029678;28;20207;-62
2022/09/10 05:52:23;;;;;;;3.73;2.90;;;15.60;99.90;;;;;;5028154;28;20231;-63
2022/09/10 05:54:51;;;;;;;4.17;3.30;;;15.60;99.90;;;;;;5040844;28;20243;-62
2022/09/10 05:57:18;;;;;;;3.47;3.17;;;15.80;99.90;;;;;;5025367;28;20253;-62
2022/09/10 05:59:45;;;;;;;3.73;3.20;;;15.80;40.90;;;;;;5028834;28;20191;-62
2022/09/10 06:02:17;;;;;;;5.75;3.00;;;15.80;1.00;;;;;;5026034;28;20288;-62
2022/09/10 06:04:49;;;;;;;5.72;2.97;;;15.90;1.00;;;;;;5028420;28;20203;-62
2022/09/10 06:07:16;;;;;;;3.90;3.05;;;16.00;1.00;;;;;;5024578;28;20223;-61
2022/09/10 06:09:43;;;;;;;4.63;2.60;;;16.00;1.00;;;;;;5040592;28;20200;-62
2022/09/10 06:12:20;;;;;;;4.15;3.03;;;16.00;1.00;;;;;;5026539;28;20203;-62
2022/09/10 06:14:48;;;;;;;3.50;2.70;;;16.10;1.00;;;;;;5027187;28;20265;-62
2022/09/10 06:17:20;;;;;;;4.30;2.70;;;16.10;1.00;;;;;;5021349;28;20227;-61
2022/09/10 06:19:50;;;;;;;4.80;2.30;;;16.20;1.00;;;;;;5044224;28;20210;-62
2022/09/10 06:22:18;;;;;;;4.88;2.85;;;16.30;1.00;;;;;;5043610;28;20246;-62
2022/09/10 06:24:49;;;;;;;5.63;3.05;;;16.40;1.00;;;;;;5029587;28;20679;-61
2022/09/10 06:27:17;;;;;;;6.03;2.80;;;16.40;1.00;;;;;;5047407;28;20298;-62
2022/09/10 06:29:46;;;;;;;3.70;2.88;;;16.50;1.00;;;;;;5049851;28;20207;-62
2022/09/10 06:32:13;;;;;;;4.85;4.05;;;16.30;1.00;;;;;;5051011;28;20581;-61
2022/09/10 06:34:41;;;;;;;5.00;3.60;;;16.30;1.00;;;;;;5046580;28;20655;-62
2022/09/10 06:37:09;;;;;;;6.00;3.97;;;16.40;1.00;;;;;;5049164;28;20934;-62
2022/09/10 06:39:37;;;;;;;5.28;3.83;;;16.40;1.00;;;;;;5031237;28;20207;-61
2022/09/10 06:42:05;;;;;;;6.32;3.65;;;16.40;1.00;;;;;;5047508;28;20277;-61
2022/09/10 06:44:50;;;;;;;6.68;4.68;;;16.40;1.00;;;;;;5032300;28;20579;-62
2022/09/10 06:47:33;;;;;;;4.72;4.22;;;16.30;1.00;;;;;;5031237;28;20794;-61
2022/09/10 06:50:20;;;;;;;6.00;4.60;;;16.30;1.00;;;;;;5043931;28;20199;-62
2022/09/10 06:52:49;;;;;;;4.40;4.00;;;16.30;1.00;;;;;;5028127;28;20225;-62
2022/09/10 06:55:19;;;;;;;4.32;3.92;;;16.30;1.00;;;;;;5030793;28;20797;-63
2022/09/10 06:57:46;;;;;;;7.07;4.45;;;16.20;1.00;;;;;;5046524;28;20204;-63
2022/09/10 07:00:15;;;;;;;4.47;3.63;;;16.40;1.00;;;;;;5028806;28;20681;-63
2022/09/10 07:02:45;;;;;;;6.97;3.78;;;16.40;1.00;;;;;;5028366;28;20192;-62
2022/09/10 07:05:12;;;;;;;5.60;4.20;;;16.40;1.00;;;;;;5028090;28;20199;-61
2022/09/10 07:07:40;;;;;;;5.38;3.90;;;16.40;1.00;;;;;;5046747;28;20314;-61
2022/09/10 07:10:08;;;;;;;4.68;4.00;;;16.40;1.00;;;;;;5027081;28;20292;-62
2022/09/10 07:12:35;;;;;;;4.20;3.47;;;16.50;1.00;;;;;;5028793;28;20199;-62
2022/09/10 07:15:05;;;;;;;4.97;3.83;;;16.60;1.00;;;;;;5040648;28;20195;-62
2022/09/10 07:17:34;;;;;;;4.57;3.50;;;16.80;1.00;;;;;;5029606;28;20221;-61
2022/09/10 07:20:02;;;;;;;4.47;3.80;;;16.80;1.00;;;;;;5043590;28;20208;-62
2022/09/10 07:22:42;;;;;;;4.70;3.05;;;16.90;99.90;;;;;;5047318;28;20194;-62
2022/09/10 07:25:11;;;;;;;4.53;3.20;;;17.00;99.90;;;;;;5045024;28;20650;-62
2022/09/10 07:27:53;;;;;;;5.70;3.42;;;17.00;99.90;;;;;;5046447;28;20217;-62
2022/09/10 07:30:21;;;;;;;3.67;3.17;;;17.00;99.90;;;;;;5027468;28;20295;-62
2022/09/10 07:32:49;;;;;;;4.28;3.38;;;17.10;1.00;;;;;;5029039;28;20196;-62
2022/09/10 07:35:20;;;;;;;6.57;4.25;;;17.10;1.00;;;;;;5044635;28;20205;-61
2022/09/10 07:37:48;;;;;;;4.82;3.83;;;17.20;99.90;;;;;;5047948;28;20244;-62
2022/09/10 07:40:18;;;;;;;7.45;4.15;;;17.30;1.00;;;;;;5042690;28;20208;-62
2022/09/10 07:42:45;;;;;;;7.22;4.70;;;17.30;1.00;;;;;;5042516;28;20208;-63
2022/09/10 07:45:14;;;;;;;11.40;3.53;;;17.30;99.90;;;;;;5043120;28;20199;-62
2022/09/10 07:47:45;;;;;;;5.38;3.72;;;17.40;1.00;;;;;;5028764;28;20212;-62
2022/09/10 07:50:13;;;;;;;6.13;3.83;;;17.70;99.90;;;;;;5026577;28;20195;-64
2022/09/10 07:52:41;;;;;;;4.32;3.53;;;18.10;99.90;;;;;;5009207;28;20199;-62
2022/09/10 07:55:09;;;;;;;6.25;3.88;;;18.50;96.60;;;;;;5023637;28;20196;-62
2022/09/10 07:57:39;;;;;;;5.95;3.40;;;18.70;1.00;;;;;;5041258;28;20208;-64
2022/09/10 08:00:14;;;;;;;4.63;3.63;;;18.50;1.00;;;;;;5046606;28;20651;-62
2022/09/10 08:02:42;;;;;;;4.53;3.20;;;19.40;1.00;;;;;;5041138;28;20229;-61
2022/09/10 08:05:15;;;;;;;7.40;3.47;;;19.70;1.00;;;;;;5048846;28;20199;-61
2022/09/10 08:07:43;;;;;;;4.93;3.08;;;20.10;1.00;;;;;;5043688;28;20226;-62
2022/09/10 08:10:11;;;;;;;4.55;3.28;;;20.60;99.90;;;;;;5040042;28;20207;-62
2022/09/10 08:12:39;;;;;;;5.00;3.10;;;21.90;99.90;;;;;;5028988;28;20655;-62
2022/09/10 08:15:09;;;;;;;5.35;3.05;;;21.90;99.90;;;;;;5028627;28;20248;-62
2022/09/10 08:17:38;;;;;;;5.13;3.42;;;21.80;99.90;;;;;;5046419;28;20663;-61
2022/09/10 08:20:08;;;;;;;6.93;3.35;;;21.30;99.90;;;;;;5029686;28;20196;-62
2022/09/10 08:22:37;;;;;;;9.00;3.53;;;20.80;99.90;;;;;;5041135;28;20226;-62
2022/09/10 08:25:07;;;;;;;4.32;3.42;;;19.80;1.00;;;;;;5024093;28;20214;-61
2022/09/10 08:27:36;;;;;;;5.85;4.00;;;19.40;1.00;;;;;;5026876;28;20219;-62
2022/09/10 08:30:05;;;;;;;6.60;4.18;;;19.20;1.00;;;;;;5042169;28;20199;-64
2022/09/10 08:32:36;;;;;;;6.35;4.10;;;19.00;1.00;;;;;;5042723;28;20204;-64
2022/09/10 08:35:04;;;;;;;7.93;4.55;;;18.60;30.40;;;;;;5044173;28;20200;-64
2022/09/10 08:37:33;;;;;;;4.63;4.05;;;18.40;63.40;;;;;;5028999;28;20207;-63
2022/09/10 08:40:02;;;;;;;5.63;4.13;;;18.40;99.90;;;;;;5027856;28;20191;-63
2022/09/10 08:42:44;;;;;;;5.65;3.88;;;18.60;99.90;;;;;;5040658;28;20199;-63
2022/09/10 08:45:21;;;;;;;7.35;3.97;;;18.70;92.30;;;;;;5028541;28;20199;-64
2022/09/10 08:48:10;;;;;;;4.60;3.17;;;18.90;24.70;;;;;;5025708;28;20250;-64
2022/09/10 08:51:00;;;;;;;5.18;3.55;;;19.10;1.00;;;;;;5044676;28;20599;-63
2022/09/10 08:53:39;;;;;;;4.97;2.95;;;19.90;1.00;;;;;;5040563;28;20246;-63
2022/09/10 08:56:15;;;;;;;3.40;3.10;;;20.30;1.00;;;;;;5040285;28;20694;-63
2022/09/10 08:58:49;;;;;;;5.30;3.03;;;20.60;1.00;;;;;;5026290;28;20741;-63
2022/09/10 09:01:35;;;;;;;7.30;4.07;;;21.40;99.90;;;;;;5025554;28;20221;-63
2022/09/10 09:04:11;;;;;;;3.22;2.88;;;22.20;99.90;;;;;;5037226;28;20199;-64
2022/09/10 09:06:50;;;;;;;3.58;2.88;;;23.50;89.70;;;;;;5031161;28;20501;-64
2022/09/10 09:09:20;;;;;;;3.35;2.33;;;25.40;1.00;;;;;;5037174;28;20710;-63
2022/09/10 09:11:59;;;;;;;3.38;2.30;;;25.60;1.00;;;;;;5019317;28;20199;-62
2022/09/10 09:14:29;;;;;;;2.70;2.00;;;23.60;1.00;;;;;;5041518;28;20307;-63
2022/09/10 09:17:05;;;;;;;3.42;2.00;;;23.40;4.70;;;;;;5030460;28;20235;-62
2022/09/10 09:19:44;;;;;;;3.70;2.15;;;22.50;44.50;;;;;;5039734;28;20230;-63
2022/09/10 09:22:18;;;;;;;4.20;2.60;;;20.90;99.90;;;;;;5046796;28;20194;-63
2022/09/10 09:24:59;;;;;;;3.95;2.42;;;20.20;99.90;;;;;;5043162;28;20195;-63
2022/09/10 09:27:32;;;;;;;2.60;2.40;;;20.50;99.90;;;;;;5040327;28;20246;-64
2022/09/10 09:30:05;;;;;;;4.32;2.75;;;20.30;99.90;;;;;;5020887;28;20203;-64
2022/09/10 09:32:40;;;;;;;5.05;3.15;;;20.00;99.90;;;;;;5027300;28;20213;-63
2022/09/10 09:35:20;;;;;;;3.47;2.90;;;20.10;99.90;;;;;;5045971;28;20784;-64
2022/09/10 09:37:50;;;;;;;4.57;2.47;;;20.50;99.90;;;;;;5035609;28;20710;-63
2022/09/10 09:40:32;;;;;;;4.13;2.67;;;22.80;84.30;;;;;;5030506;28;20687;-62
2022/09/10 09:43:12;;;;;;;4.05;2.65;;;22.70;20.20;;;;;;5026365;28;20215;-62
2022/09/10 09:45:44;;;;;;;3.47;2.80;;;21.80;99.90;;;;;;5027718;28;20198;-62
2022/09/10 09:48:19;;;;;;;3.95;3.42;;;21.00;99.90;;;;;;5045954;28;20215;-64
2022/09/10 09:50:59;;;;;;;4.45;3.38;;;21.30;99.90;;;;;;5030997;28;20230;-63
2022/09/10 09:53:28;;;;;;;4.88;2.90;;;21.30;99.90;;;;;;5035023;28;20196;-63
2022/09/10 09:56:00;;;;;;;3.85;2.35;;;21.00;99.90;;;;;;5030807;28;20202;-63
2022/09/10 09:58:35;;;;;;;2.88;2.47;;;21.70;99.90;;;;;;5049505;28;20670;-64
2022/09/10 10:01:08;;;;;;;3.20;2.10;;;21.80;99.90;;;;;;5048040;28;20195;-64
2022/09/10 10:03:42;;;;;;;4.47;2.10;;;22.20;74.70;;;;;;5046787;28;20196;-63
2022/09/10 10:06:11;;;;;;;5.78;2.30;;;22.10;65.20;;;;;;5033508;28;21307;-61
2022/09/10 10:08:40;;;;;;;4.32;2.20;;;22.00;72.20;;;;;;5050434;28;20218;-63
2022/09/10 10:11:08;;;;;;;3.40;2.13;;;21.80;75.00;;;;;;5042315;28;21503;-64
2022/09/10 10:13:38;;;;;;;4.00;2.55;;;21.20;99.90;;;;;;5047600;28;20235;-63
2022/09/10 10:16:16;;;;;;;4.72;2.60;;;20.90;99.90;;;;;;5024710;28;20223;-63
2022/09/10 10:18:44;;;;;;;3.97;2.80;;;20.00;99.90;;;;;;5048701;28;20305;-63
2022/09/10 10:21:32;;;;;;;3.55;2.50;;;20.00;99.90;;;;;;5046484;28;20206;-62
2022/09/10 10:23:59;;;;;;;3.25;2.47;;;20.40;99.90;;;;;;5032718;28;20217;-62
2022/09/10 10:26:32;;;;;;;3.03;2.50;;;21.30;99.90;;;;;;5029723;28;20597;-64
2022/09/10 10:29:15;;;;;;;3.78;2.75;;;21.90;84.40;;;;;;5047610;28;20215;-64
2022/09/10 10:31:45;;;;;;;3.53;1.95;;;21.80;69.20;;;;;;5048424;28;20655;-62
2022/09/10 10:34:33;;;;;;;2.90;2.25;;;21.50;97.90;;;;;;5046671;28;20650;-64
2022/09/10 10:37:24;;;;;;;5.25;2.97;;;20.20;99.90;;;;;;5045629;28;20270;-63
2022/09/10 10:39:59;;;;;;;4.25;2.78;;;19.80;99.90;;;;;;5048766;28;20242;-63
2022/09/10 10:42:36;;;;;;;5.63;2.60;;;19.90;99.90;;;;;;5049921;28;20199;-63
2022/09/10 10:45:37;;;;;;;3.92;2.47;;;19.90;99.90;;;;;;5030569;28;20210;-64
2022/09/10 10:48:14;;;;;;;3.70;3.20;;;20.40;99.90;;;;;;5029817;28;20215;-63
2022/09/10 10:51:19;;;;;;;3.90;3.55;;;20.40;99.90;;;;;;5051117;28;20191;-63
2022/09/10 10:53:48;;;;;;;5.78;4.72;;;20.60;99.90;;;;;;5027483;28;20205;-64
2022/09/10 10:56:39;;;;;;;13.35;11.85;;;20.40;99.90;;;;;;5044580;28;20203;-63
2022/09/10 10:59:08;;;;;;;5.57;4.20;;;20.50;99.90;;;;;;5050315;28;20666;-62
2022/09/10 11:01:41;;;;;;;6.88;2.90;;;20.50;99.90;;;;;;5032498;28;20633;-62
2022/09/10 11:04:37;;;;;;;2.92;2.53;;;20.20;99.90;;;;;;5049526;28;20695;-62
2022/09/10 11:07:07;;;;;;;3.50;2.70;;;20.20;99.90;;;;;;5049284;28;22027;-63
2022/09/10 11:09:58;;;;;;;4.03;3.10;;;20.10;99.90;;;;;;5048985;28;20709;-61
2022/09/10 11:13:21;;;;;;;3.83;3.40;;;19.60;99.90;;;;;;5049267;28;20654;-61
2022/09/10 11:16:03;;;;;;;4.88;3.85;;;19.20;99.90;;;;;;5005266;28;20219;-62
2022/09/10 11:18:56;;;;;;;5.55;3.65;;;19.40;99.90;;;;;;4993976;28;20196;-61
2022/09/10 11:21:28;;;;;;;6.03;4.10;;;19.50;99.90;;;;;;5026214;28;20279;-62
2022/09/10 11:23:58;;;;;;;5.03;4.47;;;19.40;1.00;;;;;;5010613;28;20194;-63
2022/09/10 11:26:44;;;;;;;6.72;4.20;;;19.10;1.00;;;;;;5027515;28;20200;-63
2022/09/10 11:29:40;;;;;;;4.40;3.90;;;19.00;1.00;;;;;;5025341;28;20299;-64
2022/09/10 11:32:15;;;;;;;4.38;3.97;;;19.20;1.00;;;;;;5029289;28;20254;-64
2022/09/10 11:35:22;;;;;;;5.30;4.32;;;19.40;1.00;;;;;;5027956;28;20211;-64
2022/09/10 11:38:00;;;;;;;4.95;4.53;;;19.40;1.00;;;;;;5028832;28;20725;-63
2022/09/10 11:40:45;;;;;;;6.03;4.75;;;19.30;1.00;;;;;;5026764;28;20275;-64
2022/09/10 11:43:50;;;;;;;7.60;5.35;;;19.00;1.00;;;;;;5026776;28;20200;-63
2022/09/10 11:46:28;;;;;;;5.75;4.68;;;18.90;1.00;;;;;;4997494;28;20218;-64
2022/09/10 11:49:14;;;;;;;6.63;5.05;;;18.80;1.00;;;;;;5011104;28;20250;-64
2022/09/10 11:51:43;;;;;;;6.22;4.57;;;18.90;1.00;;;;;;5027651;28;20254;-64
2022/09/10 11:54:17;;;;;;;7.00;5.60;;;18.90;1.00;;;;;;5027237;28;20199;-65
2022/09/10 11:56:51;;;;;;;6.03;5.43;;;18.60;1.00;;;;;;5026883;28;20206;-63
2022/09/10 11:59:37;;;;;;;6.18;5.57;;;18.40;1.00;;;;;;5008865;28;20378;-64
2022/09/10 12:02:12;;;;;;;7.68;6.55;;;18.40;1.00;;;;;;5026223;28;20795;-63
2022/09/10 12:04:48;;;;;;;7.10;6.40;;;18.00;99.90;;;;;;5025883;28;21187;-63
2022/09/10 12:07:45;;;;;;;7.65;6.70;;;18.10;99.90;;;;;;5023845;28;20337;-65
2022/09/10 12:10:18;;;;;;;8.05;5.75;;;18.20;99.90;;;;;;5027920;28;20211;-63
2022/09/10 12:12:49;;;;;;;7.35;5.13;;;18.20;99.90;;;;;;5028745;28;20196;-63
2022/09/10 12:15:35;;;;;;;5.22;4.70;;;17.90;99.90;;;;;;5046869;28;20211;-65
2022/09/10 12:18:15;;;;;;;5.30;4.80;;;17.70;1.00;;;;;;5045915;28;20191;-63
2022/09/10 12:20:56;;;;;;;4.65;3.72;;;17.70;99.90;;;;;;5027706;28;20607;-63
2022/09/10 12:23:28;;;;;;;4.03;3.38;;;17.60;99.90;;;;;;5045975;28;20203;-65
2022/09/10 12:25:57;;;;;;;4.40;3.80;;;17.30;1.00;;;;;;5047361;28;20204;-62
2022/09/10 12:28:51;;;;;;;5.75;4.32;;;17.30;1.00;;;;;;5046482;28;20227;-63
2022/09/10 12:31:20;;;;;;;4.97;4.47;;;17.30;99.90;;;;;;5047869;28;20191;-64
2022/09/10 12:33:47;;;;;;;4.72;4.32;;;17.20;99.90;;;;;;5028676;28;20294;-64
2022/09/10 12:36:35;;;;;;;4.40;4.00;;;17.10;1.00;;;;;;5046239;28;20183;-64
2022/09/10 12:39:24;;;;;;;7.15;4.85;;;16.90;1.00;;;;;;5046626;28;20207;-64
2022/09/10 12:41:51;;;;;;;10.15;6.18;;;16.30;1.00;;;;;;5048027;28;20724;-64
2022/09/10 12:44:33;;;;;;;9.02;7.10;;;16.00;99.90;;;;;;5047292;28;20196;-65
2022/09/10 12:47:12;;;;;;;7.93;7.23;;;15.90;98.50;;;;;;5047445;28;20203;-65
2022/09/10 12:49:53;;;;;;;9.32;6.68;;;15.70;1.00;;;;;;5045902;28;20697;-64
2022/09/10 12:52:51;;;;;;;8.17;6.93;;;15.70;1.00;;;;;;5029123;28;20235;-63
2022/09/10 12:55:42;;;;;;;8.37;6.93;;;15.60;1.00;;;;;;5047248;28;20216;-64
2022/09/10 12:58:33;;;;;;;9.70;7.03;;;15.70;99.90;;;;;;5046171;28;20290;-66
2022/09/10 13:01:07;;;;;;;7.53;6.60;;;15.70;1.00;;;;;;5044958;28;21173;-62
2022/09/10 13:03:34;;;;;;;8.85;6.57;;;15.80;76.30;;;;;;5042450;28;20318;-64
2022/09/10 13:06:04;;;;;;;8.75;7.20;;;15.90;1.00;;;;;;5036343;28;20195;-64
2022/09/10 13:08:40;;;;;;;7.23;6.00;;;15.90;99.90;;;;;;5047345;28;20192;-65
2022/09/10 13:11:34;;;;;;;7.35;6.75;;;15.90;1.00;;;;;;5049862;28;20190;-63
2022/09/10 13:14:05;;;;;;;9.77;6.50;;;16.00;1.00;;;;;;5047050;28;20235;-64
2022/09/10 13:16:33;;;;;;;8.20;6.67;;;16.00;1.00;;;;;;5048018;28;20219;-64
2022/09/10 13:19:21;;;;;;;8.07;6.20;;;16.00;1.00;;;;;;5031238;28;20687;-63
2022/09/10 13:21:49;;;;;;;7.43;5.87;;;16.10;99.90;;;;;;5036261;28;20223;-63
2022/09/10 13:24:36;;;;;;;11.07;5.78;;;16.10;99.90;;;;;;5049056;28;20618;-64